Hot Springs, VA

11:44 AM EST on January 16, 2017 (GMT -0500)
Ingalls

Weather History for KHSP - March, 2014

Change the Weather History Date:

Sunday, March 9, 2014

  Actual Average Record
Temperature  
Mean Temperature 36 °F -  
Max Temperature 41 °F 40 °F 66 °F (2016)
Min Temperature 32 °F 24 °F 8 °F (2005)
Degree Days  
Heating Degree Days 28    
Moisture  
Dew Point 27 °F    
Average Humidity 71    
Maximum Humidity 93    
Minimum Humidity 49    
Precipitation  
Precipitation 0.00 in - - ()
Sea Level Pressure  
Sea Level Pressure 30.02 in    
Wind  
Wind Speed 19 mph (West)    
Max Wind Speed 25 mph    
Max Gust Speed 36 mph    
Visibility 7 miles    
Events      
Averages and records for this station are not official NWS values.
T = Trace of Precipitation, MM = Missing Value Source: NWS Daily Summary

Daily Weather History Graph

Daily Weather History Graph

Search for Another Location

Airport or City:

Trip Planner

Search our weather history database for the weather conditions in past years. The results will help you decide how hot, cold, wet, or windy it might be!

Date:

Astronomy

Mar. 09, 2014 Rise Set
Actual Time 7:39 AM EDT 7:20 PM EDT
Civil Twilight 7:13 AM EDT 7:47 PM EDT
Nautical Twilight 6:42 AM EDT 8:17 PM EDT
Astronomical Twilight 6:12 AM EDT 8:48 PM EDT
Moon 1:16 PM EDT (3/9) 3:59 AM EDT (3/9)
Length of Visible Light 12h 33m
Length of Day
11h 41m
First Quarter, 61% of the Moon is Illuminated
Mar 9
First Quarter
Mar 16
Full
Mar 23
Last Quarter
Mar 30
New
Apr 7
First Quarter

Hourly Weather History & Observations

Time (EDT) Temp. Windchill Dew Point Humidity Pressure Visibility Wind Dir Wind Speed Gust Speed Precip Events Conditions
12:15 AM 41.0 °F 31.4 °F 28.4 °F 61% 29.98 in 10.0 mi West 21.9 mph 31.1 mph N/A   Scattered Clouds
12:35 AM 39.2 °F 29.0 °F 30.2 °F 70% 29.97 in 7.0 mi West 21.9 mph 28.8 mph N/A   Scattered Clouds
12:55 AM 39.2 °F 28.5 °F 30.2 °F 70% 29.97 in 7.0 mi West 24.2 mph 35.7 mph N/A   Mostly Cloudy
1:15 AM 39.2 °F 28.5 °F 32.0 °F 75% 29.96 in 10.0 mi West 24.2 mph 35.7 mph N/A   Scattered Clouds
1:35 AM 39.2 °F 29.0 °F 32.0 °F 75% 29.96 in 7.0 mi West 21.9 mph 33.4 mph N/A   Clear
1:55 AM 39.2 °F 29.3 °F 32.0 °F 75% 29.96 in 7.0 mi West 20.7 mph 28.8 mph N/A   Scattered Clouds
3:15 AM 37.4 °F 26.9 °F 32.0 °F 81% 29.95 in 7.0 mi WNW 20.7 mph 27.6 mph N/A   Mostly Cloudy
3:35 AM 39.2 °F 28.7 °F 32.0 °F 75% 29.95 in 7.0 mi West 23.0 mph 33.4 mph N/A   Overcast
3:55 AM 37.4 °F 26.9 °F 33.8 °F 87% 29.95 in 10.0 mi West 20.7 mph 28.8 mph N/A   Overcast
4:15 AM 37.4 °F 26.1 °F 33.8 °F 87% 29.95 in 7.0 mi WNW 24.2 mph 31.1 mph N/A   Overcast
4:35 AM 37.4 °F 28.2 °F 32.0 °F 81% 29.96 in 7.0 mi WNW 16.1 mph 26.5 mph N/A   Overcast
4:55 AM 37.4 °F 27.8 °F 32.0 °F 81% 29.96 in 7.0 mi WNW 17.3 mph 31.1 mph N/A   Overcast
5:15 AM 37.4 °F 27.5 °F 33.8 °F 87% 29.96 in 7.0 mi WNW 18.4 mph 25.3 mph N/A   Overcast
5:35 AM 37.4 °F 25.9 °F 33.8 °F 87% 29.96 in 7.0 mi WNW 25.3 mph 31.1 mph N/A   Overcast
5:50 AM 35.6 °F 24.8 °F 33.8 °F 93% 29.96 in 7.0 mi WNW 19.6 mph 31.1 mph N/A   Overcast
6:15 AM 35.6 °F 24.5 °F 33.8 °F 93% 29.97 in 7.0 mi West 20.7 mph 27.6 mph N/A   Overcast
6:35 AM 35.6 °F 24.8 °F 32.0 °F 87% 29.97 in 5.0 mi West 19.6 mph 33.4 mph N/A   Overcast
6:55 AM 35.6 °F 24.5 °F 32.0 °F 87% 29.99 in 5.0 mi West 20.7 mph 33.4 mph N/A   Overcast
7:15 AM 33.8 °F 22.8 °F 30.2 °F 87% 30.00 in 5.0 mi West 18.4 mph 29.9 mph N/A   Overcast
7:30 AM 33.8 °F 22.2 °F 30.2 °F 87% 29.99 in 5.0 mi West 20.7 mph 31.1 mph N/A   Overcast
7:55 AM 33.8 °F 22.2 °F 30.2 °F 87% 30.00 in 4.0 mi West 20.7 mph 33.4 mph N/A   Overcast
8:15 AM 33.8 °F 21.9 °F 30.2 °F 87% 30.00 in 3.0 mi West 21.9 mph 33.4 mph N/A   Mostly Cloudy
8:30 AM 33.8 °F 21.6 °F 30.2 °F 87% 30.01 in 3.0 mi West 23.0 mph 34.5 mph N/A   Overcast
8:55 AM 32.0 °F 21.6 °F 30.2 °F 93% 30.02 in 3.0 mi West 15.0 mph 31.1 mph N/A   Overcast
9:15 AM 32.0 °F 21.6 °F 30.2 °F 93% 30.04 in 4.0 mi WNW 15.0 mph 23.0 mph N/A   Overcast
9:35 AM 32.0 °F 21.6 °F 30.2 °F 93% 30.05 in 3.0 mi West 15.0 mph 23.0 mph N/A   Overcast
9:55 AM 32.0 °F 21.2 °F 30.2 °F 93% 30.05 in 4.0 mi West 16.1 mph 21.9 mph N/A   Overcast
10:15 AM 32.0 °F 22.1 °F 28.4 °F 87% 30.05 in 5.0 mi WNW 13.8 mph 24.2 mph N/A   Overcast
10:35 AM 33.8 °F 22.5 °F 26.6 °F 75% 30.05 in 5.0 mi WNW 19.6 mph 26.5 mph N/A   Haze
10:55 AM 33.8 °F 22.2 °F 26.6 °F 75% 30.05 in 5.0 mi West 20.7 mph 29.9 mph N/A   Haze
11:20 AM 33.8 °F 23.9 °F 26.6 °F 75% 30.06 in 7.0 mi WNW 15.0 mph 23.0 mph N/A   Clear
11:35 AM 33.8 °F 23.5 °F 26.6 °F 75% 30.06 in 5.0 mi WNW 16.1 mph 21.9 mph N/A   Haze
11:55 AM 33.8 °F 23.5 °F 26.6 °F 75% 30.06 in 5.0 mi West 16.1 mph 23.0 mph N/A   Haze
12:15 PM 33.8 °F 24.8 °F 26.6 °F 75% 30.06 in 7.0 mi West 12.7 mph 23.0 mph N/A   Clear
12:35 PM 35.6 °F 26.6 °F 26.6 °F 70% 30.07 in 7.0 mi West 13.8 mph 19.6 mph N/A   Clear
12:55 PM 35.6 °F 27.1 °F 26.6 °F 70% 30.07 in 7.0 mi WNW 12.7 mph - N/A   Clear
1:15 PM 35.6 °F 28.6 °F 26.6 °F 70% 30.07 in 5.0 mi West 9.2 mph - N/A   Haze
1:35 PM 35.6 °F 26.6 °F 26.6 °F 70% 30.07 in 7.0 mi West 13.8 mph 19.6 mph N/A   Clear
1:50 PM 37.4 °F 30.3 °F 26.6 °F 65% 30.07 in 7.0 mi West 10.4 mph 19.6 mph N/A   Clear
2:15 PM 37.4 °F 28.5 °F 26.6 °F 65% 30.06 in 7.0 mi West 15.0 mph - N/A   Clear
2:35 PM 37.4 °F 30.8 °F 26.6 °F 65% 30.06 in 7.0 mi WNW 9.2 mph 16.1 mph N/A   Clear
2:55 PM 39.2 °F 32.5 °F 26.6 °F 61% 30.06 in 7.0 mi West 10.4 mph 17.3 mph N/A   Clear
3:10 PM 37.4 °F 28.9 °F 24.8 °F 60% 30.05 in 7.0 mi West 13.8 mph 17.3 mph N/A   Clear
3:35 PM 39.2 °F 31.6 °F 24.8 °F 56% 30.05 in 5.0 mi WNW 12.7 mph 16.1 mph N/A   Haze
3:55 PM 39.2 °F 31.6 °F 23.0 °F 52% 30.05 in 10.0 mi West 12.7 mph 19.6 mph N/A   Clear
4:15 PM 39.2 °F 33.0 °F 23.0 °F 52% 30.05 in 7.0 mi West 9.2 mph 16.1 mph N/A   Clear
4:35 PM 39.2 °F 31.2 °F 24.8 °F 56% 30.05 in 7.0 mi WSW 13.8 mph 17.3 mph N/A   Clear
4:55 PM 39.2 °F 32.0 °F 21.2 °F 49% 30.04 in 7.0 mi West 11.5 mph - N/A   Clear
5:15 PM 37.4 °F 28.5 °F 21.2 °F 52% 30.04 in 7.0 mi West 15.0 mph 21.9 mph N/A   Clear
5:35 PM 37.4 °F 29.3 °F 21.2 °F 52% 30.03 in 7.0 mi West 12.7 mph - N/A   Clear
5:50 PM 37.4 °F 28.2 °F 23.0 °F 56% 30.03 in 5.0 mi West 16.1 mph - N/A   Haze
6:15 PM 37.4 °F 27.5 °F 21.2 °F 52% 30.03 in 7.0 mi West 18.4 mph 21.9 mph N/A   Clear
6:35 PM 35.6 °F 26.2 °F 23.0 °F 60% 30.04 in 7.0 mi West 15.0 mph - N/A   Clear
6:55 PM 35.6 °F 25.2 °F 23.0 °F 60% 30.03 in 7.0 mi WNW 18.4 mph 21.9 mph N/A   Clear
7:15 PM 35.6 °F 25.9 °F 23.0 °F 60% 30.02 in 7.0 mi West 16.1 mph 21.9 mph N/A   Clear
7:35 PM 35.6 °F 25.5 °F 23.0 °F 60% 30.03 in 7.0 mi West 17.3 mph - N/A   Clear
7:55 PM 35.6 °F 25.9 °F 24.8 °F 65% 30.02 in 7.0 mi West 16.1 mph - N/A   Clear
8:15 PM 35.6 °F 25.5 °F 24.8 °F 65% 30.03 in 7.0 mi West 17.3 mph 23.0 mph N/A   Clear
8:35 PM 35.6 °F 25.5 °F 24.8 °F 65% 30.02 in 7.0 mi West 17.3 mph 24.2 mph N/A   Clear
8:55 PM 35.6 °F 25.5 °F 24.8 °F 65% 30.03 in 7.0 mi West 17.3 mph 21.9 mph N/A   Clear
9:15 PM 35.6 °F 25.5 °F 24.8 °F 65% 30.03 in 7.0 mi West 17.3 mph 23.0 mph N/A   Clear
9:35 PM 35.6 °F 25.2 °F 24.8 °F 65% 30.03 in 7.0 mi West 18.4 mph 23.0 mph N/A   Clear
10:10 PM 35.6 °F 25.2 °F 24.8 °F 65% 30.03 in 10.0 mi West 18.4 mph 24.2 mph N/A   Clear
10:36 PM 35.6 °F 24.5 °F 24.8 °F 65% 30.02 in 10.0 mi West 20.7 mph 27.6 mph N/A   Clear
10:56 PM 35.6 °F 24.8 °F 24.8 °F 65% 30.02 in 10.0 mi West 19.6 mph 27.6 mph N/A   Clear
11:16 PM 35.6 °F 25.2 °F 24.8 °F 65% 30.02 in 7.0 mi West 18.4 mph - N/A   Clear
11:35 PM 35.6 °F 24.2 °F 24.8 °F 65% 30.01 in 7.0 mi West 21.9 mph 28.8 mph N/A   Clear
11:36 PM 35.6 °F 24.2 °F 24.8 °F 65% 30.01 in 7.0 mi West 21.9 mph 28.8 mph N/A   Clear
11:50 PM 35.6 °F 25.2 °F 24.8 °F 65% 30.01 in 7.0 mi West 18.4 mph - N/A   Clear
12:16 AM 35.6 °F 24.2 °F 24.8 °F 65% 29.99 in 7.0 mi West 21.9 mph - N/A   Clear
12:36 AM 35.6 °F 25.2 °F 24.8 °F 65% 29.99 in 7.0 mi West 18.4 mph 29.9 mph N/A   Clear
12:55 AM 35.6 °F 24.5 °F 24.8 °F 65% 29.98 in 7.0 mi West 20.7 mph 26.5 mph N/A   Clear
12:56 AM 35.6 °F 24.8 °F 24.8 °F 65% 29.98 in 7.0 mi West 19.6 mph 26.5 mph N/A   Clear